createdAt,value
2023-02-24T00:00:47.333Z,6.47
2023-02-24T00:03:16.517Z,5.87
2023-02-24T00:05:49.833Z,3.47
2023-02-24T00:08:18.880Z,7.37
2023-02-24T00:10:49.603Z,8.60
2023-02-24T00:13:22.345Z,1.13
2023-02-24T00:16:02.410Z,3.37
2023-02-24T00:18:32.134Z,5.70
2023-02-24T00:21:08.139Z,2.13
2023-02-24T00:23:38.245Z,1.40
2023-02-24T00:26:10.593Z,5.33
2023-02-24T00:28:39.692Z,2.53
2023-02-24T00:31:11.206Z,4.77
2023-02-24T00:33:40.735Z,4.80
2023-02-24T00:36:11.823Z,3.83
2023-02-24T00:38:44.951Z,2.93
2023-02-24T00:41:17.658Z,1.77
2023-02-24T00:43:47.644Z,6.93
2023-02-24T00:46:18.189Z,6.23
2023-02-24T00:48:48.140Z,2.77
2023-02-24T00:51:23.323Z,2.27
2023-02-24T00:53:55.955Z,10.93
2023-02-24T00:56:28.141Z,3.37
2023-02-24T00:58:59.243Z,6.67
2023-02-24T01:01:32.256Z,5.40
2023-02-24T01:04:06.064Z,1.87
2023-02-24T01:06:35.544Z,4.87
2023-02-24T01:09:08.147Z,7.87
2023-02-24T01:11:56.376Z,5.13
2023-02-24T01:14:28.311Z,5.83
2023-02-24T01:16:58.382Z,5.50
2023-02-24T01:19:31.415Z,5.23
2023-02-24T01:22:06.728Z,2.10
2023-02-24T01:24:38.691Z,3.47
2023-02-24T01:27:12.593Z,2.80
2023-02-24T01:29:41.726Z,3.73
2023-02-24T01:32:16.917Z,4.23
2023-02-24T01:34:46.236Z,2.33
2023-02-24T01:37:16.875Z,6.13
2023-02-24T01:39:46.403Z,5.10
2023-02-24T01:42:21.638Z,6.97
2023-02-24T01:45:14.071Z,2.27
2023-02-24T01:47:47.222Z,3.43
2023-02-24T01:50:21.578Z,3.10
2023-02-24T01:52:56.042Z,6.53
2023-02-24T01:55:31.536Z,2.77
2023-02-24T01:58:06.325Z,3.33
2023-02-24T02:00:45.120Z,3.13
2023-02-24T02:03:22.594Z,8.10
2023-02-24T02:05:53.222Z,7.37
2023-02-24T02:08:24.765Z,4.33
2023-02-24T02:10:58.925Z,7.07
2023-02-24T02:13:30.436Z,5.80
2023-02-24T02:16:19.217Z,6.47
2023-02-24T02:18:58.956Z,1.53
2023-02-24T02:21:56.273Z,4.03
2023-02-24T02:24:42.820Z,4.70
2023-02-24T02:27:51.431Z,5.47
2023-02-24T02:31:03.468Z,4.40
2023-02-24T02:34:09.182Z,5.37
2023-02-24T02:36:49.034Z,4.30
2023-02-24T02:39:23.917Z,5.77
2023-02-24T02:42:04.719Z,2.47
2023-02-24T02:44:39.660Z,6.73
2023-02-24T02:47:14.654Z,0.97
2023-02-24T02:49:47.065Z,3.60
2023-02-24T02:52:26.719Z,7.80
2023-02-24T02:55:01.627Z,7.90
2023-02-24T02:57:35.409Z,2.30
2023-02-24T03:00:13.020Z,4.00
2023-02-24T03:02:48.298Z,6.73
2023-02-24T03:05:21.365Z,4.93
2023-02-24T03:07:56.841Z,4.83
2023-02-24T03:10:29.570Z,5.10
2023-02-24T03:13:02.634Z,7.37
2023-02-24T03:15:34.134Z,5.40
2023-02-24T03:18:10.374Z,8.73
2023-02-24T03:20:46.783Z,5.87
2023-02-24T03:23:25.260Z,2.67
2023-02-24T03:25:59.652Z,2.20
2023-02-24T03:28:37.359Z,1.40
2023-02-24T03:31:11.867Z,1.13
2023-02-24T03:33:46.344Z,3.00
2023-02-24T03:36:15.936Z,4.33
2023-02-24T03:38:49.433Z,5.83
2023-02-24T03:41:20.327Z,3.50
2023-02-24T03:43:51.787Z,3.00
2023-02-24T03:46:21.087Z,3.47
2023-02-24T03:48:57.626Z,13.07
2023-02-24T03:51:27.605Z,3.23
2023-02-24T03:54:13.180Z,2.27
2023-02-24T03:56:59.624Z,2.70
2023-02-24T03:59:42.806Z,11.30
2023-02-24T04:02:20.187Z,3.83
2023-02-24T04:04:58.469Z,3.53
2023-02-24T04:07:45.064Z,5.67
2023-02-24T04:10:23.437Z,5.57
2023-02-24T04:12:59.601Z,4.37
2023-02-24T04:15:37.602Z,4.53
2023-02-24T04:18:15.024Z,2.80
2023-02-24T04:20:49.375Z,1.73
2023-02-24T04:23:22.986Z,5.13
2023-02-24T04:25:57.818Z,2.10
2023-02-24T04:28:30.756Z,7.13
2023-02-24T04:31:06.379Z,5.07
2023-02-24T04:33:38.433Z,3.30
2023-02-24T04:36:09.160Z,8.17
2023-02-24T04:38:41.116Z,2.27
2023-02-24T04:41:12.459Z,2.13
2023-02-24T04:43:41.782Z,5.60
2023-02-24T04:46:12.165Z,2.30
2023-02-24T04:48:41.323Z,10.60
2023-02-24T04:51:10.461Z,3.97
2023-02-24T04:53:39.517Z,3.70
2023-02-24T04:56:09.415Z,4.33
2023-02-24T04:58:41.524Z,6.03
2023-02-24T05:01:11.811Z,4.20
2023-02-24T05:03:43.327Z,3.73
2023-02-24T05:06:16.560Z,8.03
2023-02-24T05:08:46.286Z,5.83
2023-02-24T05:11:17.100Z,5.73
2023-02-24T05:13:47.769Z,3.57
2023-02-24T05:16:20.185Z,2.90
2023-02-24T05:18:49.588Z,2.57
2023-02-24T05:21:42.045Z,1.43
2023-02-24T05:24:11.550Z,4.53
2023-02-24T05:26:42.584Z,1.53
2023-02-24T05:29:14.403Z,4.70
2023-02-24T05:31:44.138Z,2.53
2023-02-24T05:34:17.115Z,6.03
2023-02-24T05:36:46.534Z,6.87
2023-02-24T05:39:19.331Z,8.00
2023-02-24T05:41:50.015Z,2.30
2023-02-24T05:44:23.551Z,8.00
2023-02-24T05:46:58.112Z,2.30
2023-02-24T05:49:31.305Z,1.37
2023-02-24T05:52:02.569Z,3.83
2023-02-24T05:54:33.810Z,6.27
2023-02-24T05:57:05.588Z,4.17
2023-02-24T05:59:36.309Z,5.33
2023-02-24T06:02:09.238Z,5.03
2023-02-24T06:04:50.738Z,1.90
2023-02-24T06:07:22.925Z,7.87
2023-02-24T06:09:56.363Z,6.50
2023-02-24T06:12:28.678Z,5.37
2023-02-24T06:14:59.237Z,2.37
2023-02-24T06:17:29.339Z,6.30
2023-02-24T06:19:58.426Z,8.90
2023-02-24T06:22:28.261Z,8.33
2023-02-24T06:24:57.617Z,4.03
2023-02-24T06:27:27.997Z,2.90
2023-02-24T06:29:58.823Z,5.83
2023-02-24T06:32:28.319Z,4.30
2023-02-24T06:34:59.293Z,4.57
2023-02-24T06:37:29.882Z,2.47
2023-02-24T06:39:59.283Z,3.93
2023-02-24T06:42:28.578Z,1.53
2023-02-24T06:44:59.770Z,4.00
2023-02-24T06:47:28.923Z,4.80
2023-02-24T06:49:57.967Z,5.37
2023-02-24T06:52:27.021Z,6.37
2023-02-24T06:54:56.393Z,0.93
2023-02-24T06:57:25.714Z,1.87
2023-02-24T06:59:56.108Z,1.40
2023-02-24T07:02:33.255Z,5.60
2023-02-24T07:05:02.314Z,1.20
2023-02-24T07:07:31.386Z,1.70
2023-02-24T07:10:00.510Z,2.17
2023-02-24T07:12:29.554Z,2.30
2023-02-24T07:14:58.919Z,3.13
2023-02-24T07:17:29.327Z,3.67
2023-02-24T07:20:02.985Z,2.63
2023-02-24T07:22:32.029Z,5.17
2023-02-24T07:25:01.519Z,3.57
2023-02-24T07:27:30.696Z,1.03
2023-02-24T07:30:00.080Z,4.97
2023-02-24T07:32:30.602Z,1.70
2023-02-24T07:34:59.753Z,1.90
2023-02-24T07:37:31.529Z,2.00
2023-02-24T07:40:01.776Z,2.00
2023-02-24T07:42:35.273Z,8.90
2023-02-24T07:45:09.167Z,8.77
2023-02-24T07:47:41.056Z,0.93
2023-02-24T07:50:14.428Z,4.83
2023-02-24T07:52:43.509Z,3.87
2023-02-24T07:55:12.933Z,0.70
2023-02-24T07:57:46.745Z,2.83
2023-02-24T08:00:20.397Z,3.47
2023-02-24T08:02:51.845Z,1.33
2023-02-24T08:05:21.787Z,5.70
2023-02-24T08:07:52.057Z,3.57
2023-02-24T08:10:27.608Z,1.90
2023-02-24T08:13:02.985Z,4.83
2023-02-24T08:15:34.099Z,3.90
2023-02-24T08:18:05.272Z,1.80
2023-02-24T08:20:51.918Z,2.93
2023-02-24T08:23:23.375Z,2.50
2023-02-24T08:25:53.694Z,0.67
2023-02-24T08:28:26.777Z,1.37
2023-02-24T08:30:55.946Z,2.20
2023-02-24T08:33:30.091Z,1.77
2023-02-24T08:36:02.494Z,1.37
2023-02-24T08:38:44.844Z,0.97
2023-02-24T08:41:17.938Z,0.80
2023-02-24T08:43:48.324Z,0.93
2023-02-24T08:46:21.299Z,0.63
2023-02-24T08:48:55.835Z,1.67
2023-02-24T08:51:28.743Z,2.33
2023-02-24T08:54:00.284Z,1.33
2023-02-24T08:56:34.583Z,2.03
2023-02-24T08:59:06.361Z,5.43
2023-02-24T09:01:37.571Z,1.47
2023-02-24T09:04:11.265Z,3.70
2023-02-24T09:06:43.878Z,0.70
2023-02-24T09:09:21.131Z,0.80
2023-02-24T09:11:56.016Z,3.10
2023-02-24T09:14:28.719Z,1.07
2023-02-24T09:17:03.394Z,1.00
2023-02-24T09:20:02.123Z,1.70
2023-02-24T09:22:33.063Z,5.30
2023-02-24T09:25:21.658Z,8.70
2023-02-24T09:27:56.888Z,4.03
2023-02-24T09:30:38.780Z,4.17
2023-02-24T09:33:23.382Z,2.80
2023-02-24T09:36:10.514Z,3.80
2023-02-24T09:39:09.751Z,2.90
2023-02-24T09:41:56.504Z,2.07
2023-02-24T09:44:34.217Z,2.10
2023-02-24T09:47:13.321Z,4.27
2023-02-24T09:49:56.028Z,1.40
2023-02-24T09:52:39.693Z,1.57
2023-02-24T09:55:25.942Z,2.93
2023-02-24T09:58:19.248Z,3.80
2023-02-24T10:00:57.511Z,4.00
2023-02-24T10:03:43.289Z,10.43
2023-02-24T10:06:20.650Z,1.73
2023-02-24T10:08:56.002Z,2.40
2023-02-24T10:11:33.787Z,2.60
2023-02-24T10:14:06.801Z,5.47
2023-02-24T10:16:46.398Z,4.20
2023-02-24T10:19:27.403Z,5.43
2023-02-24T10:22:04.056Z,1.97
2023-02-24T10:24:41.141Z,2.57
2023-02-24T10:27:18.214Z,2.03
2023-02-24T10:30:05.102Z,3.70
2023-02-24T10:32:41.852Z,4.40
2023-02-24T10:35:16.561Z,4.70
2023-02-24T10:37:45.770Z,5.60
2023-02-24T10:40:26.491Z,3.57
2023-02-24T10:43:10.374Z,2.50
2023-02-24T10:45:45.166Z,3.57
2023-02-24T10:48:40.396Z,1.70
2023-02-24T10:51:19.819Z,5.83
2023-02-24T10:54:10.024Z,4.57
2023-02-24T10:56:55.213Z,2.97
2023-02-24T10:59:58.223Z,3.33
2023-02-24T11:02:32.827Z,2.90
2023-02-24T11:05:37.983Z,2.37
2023-02-24T11:08:15.695Z,4.07
2023-02-24T11:11:06.917Z,5.20
2023-02-24T11:13:56.274Z,4.27
2023-02-24T11:16:42.647Z,5.07
2023-02-24T11:19:13.189Z,3.50
2023-02-24T11:21:42.874Z,2.93
2023-02-24T11:24:19.511Z,5.83
2023-02-24T11:26:49.533Z,4.50
2023-02-24T11:29:44.965Z,3.50
2023-02-24T11:32:30.491Z,1.47
2023-02-24T11:35:06.185Z,5.27
2023-02-24T11:37:41.891Z,7.00
2023-02-24T11:40:18.741Z,7.60
2023-02-24T11:42:54.174Z,9.10
2023-02-24T11:45:33.396Z,2.73
2023-02-24T11:48:05.794Z,4.30
2023-02-24T11:50:43.783Z,4.47
2023-02-24T11:53:29.026Z,3.13
2023-02-24T11:56:03.928Z,2.57
2023-02-24T11:58:41.813Z,4.83
2023-02-24T12:01:18.362Z,6.00
2023-02-24T12:03:55.855Z,2.90
2023-02-24T12:06:31.649Z,6.57
2023-02-24T12:09:09.348Z,2.43
2023-02-24T12:11:46.279Z,3.47
2023-02-24T12:14:26.503Z,5.10
2023-02-24T12:17:04.331Z,3.20
2023-02-24T12:19:39.293Z,3.40
2023-02-24T12:22:15.645Z,4.83
2023-02-24T12:24:49.836Z,5.00
2023-02-24T12:27:35.446Z,4.70
2023-02-24T12:30:34.022Z,4.43
2023-02-24T12:33:20.094Z,3.23
2023-02-24T12:35:57.981Z,9.07
2023-02-24T12:38:45.843Z,3.83
2023-02-24T12:41:28.754Z,2.67
2023-02-24T12:44:07.143Z,4.43
2023-02-24T12:46:37.973Z,4.93
2023-02-24T12:49:24.972Z,4.00
2023-02-24T12:52:04.789Z,5.57
2023-02-24T12:54:41.626Z,3.50
2023-02-24T12:57:21.223Z,1.10
2023-02-24T12:59:51.652Z,9.70
2023-02-24T13:02:28.827Z,2.90
2023-02-24T13:05:10.263Z,13.13
2023-02-24T13:08:10.384Z,5.80
2023-02-24T13:10:45.691Z,3.30
2023-02-24T13:13:23.634Z,4.83
2023-02-24T13:15:54.967Z,8.13
2023-02-24T13:18:29.084Z,7.80
2023-02-24T13:21:19.850Z,10.33
2023-02-24T13:23:58.146Z,9.20
2023-02-24T13:26:28.905Z,10.17
2023-02-24T13:29:03.822Z,9.17
2023-02-24T13:31:43.769Z,10.27
2023-02-24T13:34:30.476Z,8.97
2023-02-24T13:37:01.104Z,9.97
2023-02-24T13:39:35.643Z,13.07
2023-02-24T13:42:07.455Z,7.23
2023-02-24T13:44:36.784Z,8.37
2023-02-24T13:47:43.755Z,8.23
2023-02-24T13:50:20.394Z,8.00
2023-02-24T13:53:20.284Z,8.77
2023-02-24T13:56:01.105Z,5.47
2023-02-24T13:58:42.532Z,9.13
2023-02-24T14:01:14.876Z,7.70
2023-02-24T14:03:47.820Z,9.20
2023-02-24T14:06:22.445Z,6.87
2023-02-24T14:08:56.945Z,7.10
2023-02-24T14:11:29.644Z,7.87
2023-02-24T14:14:00.129Z,6.70
2023-02-24T14:16:33.586Z,9.07
2023-02-24T14:19:04.171Z,6.50
2023-02-24T14:21:34.824Z,9.07
2023-02-24T14:24:12.137Z,5.20
2023-02-24T14:26:45.259Z,5.47
2023-02-24T14:29:18.803Z,9.17
2023-02-24T14:31:53.151Z,15.90
2023-02-24T14:34:24.863Z,8.90
2023-02-24T14:36:57.298Z,4.57
2023-02-24T14:39:30.327Z,8.00
2023-02-24T14:42:13.427Z,6.90
2023-02-24T14:44:44.708Z,7.77
2023-02-24T14:47:16.162Z,15.43
2023-02-24T14:49:56.126Z,10.63
2023-02-24T14:52:36.632Z,9.40
2023-02-24T14:55:09.493Z,10.40
2023-02-24T14:57:45.065Z,2.70
2023-02-24T15:00:23.816Z,6.57
2023-02-24T15:02:58.389Z,2.43
2023-02-24T15:05:27.526Z,4.57
2023-02-24T15:07:58.382Z,4.13
2023-02-24T15:10:31.806Z,2.03
2023-02-24T15:13:09.209Z,5.50
2023-02-24T15:15:39.982Z,5.33
2023-02-24T15:18:18.839Z,6.60
2023-02-24T15:20:47.863Z,7.40
2023-02-24T15:23:29.802Z,4.40
2023-02-24T15:26:00.960Z,8.67
2023-02-24T15:28:31.935Z,2.13
2023-02-24T15:31:05.164Z,6.53
2023-02-24T15:33:40.471Z,4.07
2023-02-24T15:36:17.693Z,6.80
2023-02-24T15:38:52.064Z,2.40
2023-02-24T15:41:23.596Z,10.63
2023-02-24T15:43:56.254Z,6.20
2023-02-24T15:46:29.940Z,6.43
2023-02-24T15:49:03.014Z,5.07
2023-02-24T15:51:38.279Z,9.77
2023-02-24T15:54:12.480Z,7.00
2023-02-24T15:56:44.335Z,5.90
2023-02-24T15:59:15.987Z,6.77
2023-02-24T16:01:45.224Z,3.80
2023-02-24T16:04:14.296Z,8.80
2023-02-24T16:06:54.183Z,12.87
2023-02-24T16:09:31.999Z,7.07
2023-02-24T16:12:06.153Z,6.37
2023-02-24T16:14:35.736Z,15.67
2023-02-24T16:17:18.048Z,7.47
2023-02-24T16:19:47.144Z,4.23
2023-02-24T16:22:16.221Z,6.63
2023-02-24T16:24:45.351Z,7.20
2023-02-24T16:27:18.306Z,5.77
2023-02-24T16:29:49.547Z,10.67
2023-02-24T16:32:21.526Z,4.23
2023-02-24T16:34:50.927Z,7.37
2023-02-24T16:37:22.466Z,19.33
2023-02-24T16:39:51.806Z,9.67
2023-02-24T16:42:22.939Z,6.00
2023-02-24T16:44:52.296Z,9.80
2023-02-24T16:47:24.322Z,14.40
2023-02-24T16:49:57.661Z,9.77
2023-02-24T16:52:28.499Z,9.17
2023-02-24T16:54:58.584Z,4.40
2023-02-24T16:57:29.062Z,9.40
2023-02-24T16:59:58.138Z,7.43
2023-02-24T17:02:27.637Z,8.80
2023-02-24T17:04:57.046Z,12.90
2023-02-24T17:07:26.435Z,14.60
2023-02-24T17:09:55.539Z,10.47
2023-02-24T17:12:24.592Z,14.63
2023-02-24T17:14:55.074Z,11.70
2023-02-24T17:17:24.106Z,5.93
2023-02-24T17:19:53.191Z,15.73
2023-02-24T17:22:23.079Z,20.43
2023-02-24T17:24:52.191Z,13.47
2023-02-24T17:27:21.324Z,19.37
2023-02-24T17:29:50.441Z,16.40
2023-02-24T17:32:21.221Z,7.70
2023-02-24T17:34:50.876Z,11.43
2023-02-24T17:37:20.879Z,6.67
2023-02-24T17:39:49.961Z,14.10
2023-02-24T17:42:19.067Z,10.80
2023-02-24T17:44:48.189Z,15.70
2023-02-24T17:47:17.337Z,15.57
2023-02-24T17:49:47.813Z,16.07
2023-02-24T17:52:17.186Z,13.53
2023-02-24T17:54:46.300Z,12.60
2023-02-24T17:57:15.398Z,9.90
2023-02-24T17:59:46.943Z,11.60
2023-02-24T18:02:18.195Z,20.10
2023-02-24T18:04:51.073Z,16.20
2023-02-24T18:07:21.014Z,11.17
2023-02-24T18:09:50.173Z,6.13
2023-02-24T18:12:20.791Z,13.47
2023-02-24T18:15:02.360Z,12.00
2023-02-24T18:17:36.402Z,14.37
2023-02-24T18:20:08.490Z,41.77
2023-02-24T18:22:37.901Z,18.20
2023-02-24T18:25:07.692Z,22.27
2023-02-24T18:27:36.944Z,22.07
2023-02-24T18:30:07.564Z,23.47
2023-02-24T18:32:39.245Z,20.57
2023-02-24T18:35:10.331Z,17.83
2023-02-24T18:37:39.423Z,19.90
2023-02-24T18:40:09.599Z,43.37
2023-02-24T18:42:38.671Z,15.80
2023-02-24T18:45:08.642Z,36.50
2023-02-24T18:47:37.719Z,21.90
2023-02-24T18:50:09.842Z,19.77
2023-02-24T18:52:39.115Z,14.50
2023-02-24T18:55:09.684Z,14.00
2023-02-24T18:57:40.257Z,24.07
2023-02-24T19:00:13.222Z,25.73
2023-02-24T19:02:43.225Z,23.37
2023-02-24T19:05:13.885Z,30.10
2023-02-24T19:07:43.862Z,20.10
2023-02-24T19:10:13.819Z,22.00
2023-02-24T19:12:42.837Z,17.37
2023-02-24T19:15:12.052Z,16.80
2023-02-24T19:17:41.271Z,31.33
2023-02-24T19:20:14.812Z,15.57
2023-02-24T19:22:44.518Z,18.97
2023-02-24T19:25:15.076Z,17.87
2023-02-24T19:27:44.237Z,22.23
2023-02-24T19:30:14.006Z,26.00
2023-02-24T19:32:43.677Z,15.83
2023-02-24T19:35:14.685Z,14.30
2023-02-24T19:37:52.320Z,14.77
2023-02-24T19:40:21.882Z,17.83
2023-02-24T19:42:51.795Z,18.13
2023-02-24T19:45:21.009Z,29.23
2023-02-24T19:47:50.627Z,18.53
2023-02-24T19:50:22.039Z,14.43
2023-02-24T19:52:51.233Z,14.23
2023-02-24T19:55:20.426Z,30.77
2023-02-24T19:57:53.661Z,11.27
2023-02-24T20:00:24.971Z,9.73
2023-02-24T20:02:54.171Z,20.13
2023-02-24T20:05:25.454Z,24.03
2023-02-24T20:07:54.824Z,15.27
2023-02-24T20:10:23.886Z,18.80
2023-02-24T20:12:53.051Z,18.40
2023-02-24T20:15:22.145Z,12.73
2023-02-24T20:17:51.444Z,19.00
2023-02-24T20:20:21.108Z,18.47
2023-02-24T20:22:51.652Z,24.60
2023-02-24T20:25:20.722Z,10.03
2023-02-24T20:27:49.875Z,9.87
2023-02-24T20:30:19.315Z,16.83
2023-02-24T20:32:48.724Z,18.03
2023-02-24T20:35:17.985Z,17.43
2023-02-24T20:37:47.714Z,22.97
2023-02-24T20:40:18.445Z,19.17
2023-02-24T20:42:47.749Z,14.83
2023-02-24T20:45:17.005Z,5.40
2023-02-24T20:47:46.163Z,13.13
2023-02-24T20:50:15.761Z,12.10
2023-02-24T20:52:44.792Z,16.90
2023-02-24T20:55:14.362Z,9.67
2023-02-24T20:57:44.945Z,13.13
2023-02-24T21:00:15.471Z,10.60
2023-02-24T21:02:45.530Z,9.17
2023-02-24T21:05:22.092Z,19.47
2023-02-24T21:07:51.718Z,7.90
2023-02-24T21:10:22.451Z,10.57
2023-02-24T21:12:53.651Z,10.83
2023-02-24T21:15:22.744Z,8.77
2023-02-24T21:17:51.973Z,7.73
2023-02-24T21:20:21.101Z,10.33
2023-02-24T21:22:50.137Z,6.70
2023-02-24T21:25:19.433Z,4.97
2023-02-24T21:27:49.267Z,21.40
2023-02-24T21:30:20.034Z,10.33
2023-02-24T21:32:49.571Z,6.53
2023-02-24T21:35:19.022Z,12.83
2023-02-24T21:37:48.085Z,3.37
2023-02-24T21:40:18.356Z,9.63
2023-02-24T21:42:47.578Z,8.43
2023-02-24T21:45:19.184Z,8.43
2023-02-24T21:47:49.796Z,2.83
2023-02-24T21:50:19.178Z,8.23
2023-02-24T21:52:49.182Z,8.67
2023-02-24T21:55:19.192Z,2.87
2023-02-24T21:57:48.530Z,1.87
2023-02-24T22:00:24.064Z,6.40
2023-02-24T22:02:55.924Z,2.37
2023-02-24T22:05:26.881Z,4.33
2023-02-24T22:07:57.059Z,1.27
2023-02-24T22:10:26.263Z,1.03
2023-02-24T22:12:57.894Z,1.77
2023-02-24T22:15:27.137Z,0.97
2023-02-24T22:17:57.673Z,1.80
2023-02-24T22:20:26.781Z,1.80
2023-02-24T22:22:55.814Z,3.50
2023-02-24T22:25:24.844Z,2.17
2023-02-24T22:27:53.983Z,0.67
2023-02-24T22:30:23.568Z,0.93
2023-02-24T22:32:52.830Z,1.53
2023-02-24T22:35:23.434Z,1.27
2023-02-24T22:37:53.560Z,2.77
2023-02-24T22:40:22.611Z,0.40
2023-02-24T22:42:51.850Z,0.40
2023-02-24T22:45:21.073Z,0.83
2023-02-24T22:47:50.260Z,0.60
2023-02-24T22:50:19.436Z,0.43
2023-02-24T22:52:50.194Z,0.63
2023-02-24T22:55:20.405Z,0.30
2023-02-24T22:57:49.483Z,0.40
2023-02-24T23:00:22.877Z,0.43
2023-02-24T23:02:51.937Z,2.00
2023-02-24T23:05:21.047Z,1.67
2023-02-24T23:07:52.122Z,1.40
2023-02-24T23:10:21.218Z,8.23
2023-02-24T23:12:50.299Z,0.73
2023-02-24T23:15:19.475Z,3.97
2023-02-24T23:17:49.252Z,1.63
2023-02-24T23:20:18.749Z,2.83
2023-02-24T23:22:50.551Z,3.93
2023-02-24T23:25:23.056Z,3.10
2023-02-24T23:27:54.037Z,2.60
2023-02-24T23:30:24.415Z,1.60
2023-02-24T23:32:53.659Z,2.63
2023-02-24T23:35:22.754Z,0.60
2023-02-24T23:37:51.857Z,1.30
2023-02-24T23:40:25.870Z,1.30
2023-02-24T23:42:55.106Z,2.93
2023-02-24T23:45:24.892Z,1.03
2023-02-24T23:47:54.428Z,2.27
2023-02-24T23:50:23.905Z,1.37
2023-02-24T23:52:54.003Z,1.70
2023-02-24T23:55:24.577Z,3.17
2023-02-24T23:57:53.650Z,1.87
